createdAt,value
2023-11-03T00:00:30.713Z,0.80
2023-11-03T00:03:32.123Z,0.20
2023-11-03T00:06:33.601Z,0.22
2023-11-03T00:09:35.035Z,0.25
2023-11-03T00:12:36.489Z,0.37
2023-11-03T00:15:37.988Z,0.80
2023-11-03T00:18:39.542Z,0.43
2023-11-03T00:21:40.980Z,0.13
2023-11-03T00:24:42.476Z,0.50
2023-11-03T00:27:44.185Z,0.20
2023-11-03T00:30:45.761Z,0.10
2023-11-03T00:33:47.282Z,0.10
2023-11-03T00:36:48.938Z,0.60
2023-11-03T00:39:50.446Z,0.60
2023-11-03T00:42:51.882Z,1.30
2023-11-03T00:45:53.359Z,1.40
2023-11-03T00:48:54.843Z,0.20
2023-11-03T00:51:56.338Z,0.20
2023-11-03T00:54:57.881Z,0.20
2023-11-03T00:57:59.358Z,0.30
2023-11-03T01:01:00.767Z,0.30
2023-11-03T01:04:02.319Z,0.40
2023-11-03T01:07:03.808Z,0.20
2023-11-03T01:10:05.280Z,0.08
2023-11-03T01:13:06.691Z,0.00
2023-11-03T01:16:08.164Z,0.90
2023-11-03T01:19:09.709Z,0.20
2023-11-03T01:22:11.190Z,1.20
2023-11-03T01:25:12.692Z,0.17
2023-11-03T01:28:14.222Z,0.00
2023-11-03T01:31:15.715Z,0.50
2023-11-03T01:34:17.251Z,0.05
2023-11-03T01:37:18.717Z,0.05
2023-11-03T01:40:20.134Z,0.20
2023-11-03T01:43:21.513Z,0.17
2023-11-03T01:46:22.933Z,1.00
2023-11-03T01:49:24.441Z,0.10
2023-11-03T01:52:25.881Z,0.00
2023-11-03T01:55:27.277Z,0.20
2023-11-03T01:58:28.687Z,0.37
2023-11-03T02:01:30.093Z,0.52
2023-11-03T02:04:31.587Z,0.30
2023-11-03T02:07:33.061Z,0.20
2023-11-03T02:10:34.457Z,0.30
2023-11-03T02:13:35.836Z,0.28
2023-11-03T02:16:37.298Z,0.20
2023-11-03T02:19:38.814Z,0.00
2023-11-03T02:22:40.262Z,0.10
2023-11-03T02:25:41.697Z,0.20
2023-11-03T02:28:43.171Z,0.00
2023-11-03T02:31:44.610Z,3.00
2023-11-03T02:34:46.081Z,0.30
2023-11-03T02:37:47.555Z,0.15
2023-11-03T02:40:48.964Z,0.10
2023-11-03T02:43:50.389Z,0.85
2023-11-03T02:46:51.879Z,0.52
2023-11-03T02:49:53.316Z,1.10
2023-11-03T02:52:54.736Z,0.05
2023-11-03T02:55:56.162Z,0.40
2023-11-03T02:58:57.552Z,0.30
2023-11-03T03:01:58.946Z,0.00
2023-11-03T03:05:00.404Z,0.10
2023-11-03T03:08:01.943Z,0.00
2023-11-03T03:11:03.362Z,0.20
2023-11-03T03:14:04.735Z,0.35
2023-11-03T03:17:06.136Z,0.30
2023-11-03T03:20:07.543Z,0.27
2023-11-03T03:23:08.967Z,0.20
2023-11-03T03:26:10.379Z,0.10
2023-11-03T03:29:11.789Z,0.10
2023-11-03T03:32:13.205Z,1.13
2023-11-03T03:35:14.677Z,0.10
2023-11-03T03:38:16.105Z,0.45
2023-11-03T03:41:17.525Z,0.50
2023-11-03T03:44:18.949Z,0.10
2023-11-03T03:47:20.444Z,0.00
2023-11-03T03:50:21.903Z,0.10
2023-11-03T03:53:23.282Z,0.13
2023-11-03T03:56:24.678Z,0.10
2023-11-03T03:59:26.077Z,0.00
2023-11-03T04:02:27.529Z,0.10
2023-11-03T04:05:28.980Z,0.35
2023-11-03T04:08:30.436Z,0.10
2023-11-03T04:11:31.852Z,0.13
2023-11-03T04:14:33.274Z,0.20
2023-11-03T04:17:34.665Z,0.40
2023-11-03T04:20:36.094Z,0.10
2023-11-03T04:23:37.513Z,0.00
2023-11-03T04:26:38.890Z,0.00
2023-11-03T04:29:40.281Z,0.00
2023-11-03T04:32:41.732Z,0.08
2023-11-03T04:35:43.249Z,0.10
2023-11-03T04:38:44.698Z,2.00
2023-11-03T04:41:46.147Z,0.60
2023-11-03T04:44:47.577Z,0.10
2023-11-03T04:47:49.010Z,0.10
2023-11-03T04:50:50.410Z,0.50
2023-11-03T04:53:51.796Z,0.00
2023-11-03T04:56:53.198Z,0.03
2023-11-03T04:59:54.616Z,0.05
2023-11-03T05:02:56.098Z,0.10
2023-11-03T05:05:57.534Z,0.40
2023-11-03T05:08:58.941Z,1.67
2023-11-03T05:12:00.317Z,0.20
2023-11-03T05:15:01.751Z,0.00
2023-11-03T05:18:03.244Z,0.10
2023-11-03T05:21:04.725Z,0.17
2023-11-03T05:24:06.124Z,0.00
2023-11-03T05:27:07.533Z,0.10
2023-11-03T05:30:08.932Z,0.10
2023-11-03T05:33:10.878Z,0.10
2023-11-03T05:36:12.876Z,0.40
2023-11-03T05:39:14.289Z,1.10
2023-11-03T05:42:15.675Z,0.40
2023-11-03T05:45:17.078Z,0.00
2023-11-03T05:48:18.489Z,0.00
2023-11-03T05:51:19.887Z,0.08
2023-11-03T05:54:21.299Z,0.00
2023-11-03T05:57:22.700Z,2.60
2023-11-03T06:00:24.133Z,0.40
2023-11-03T06:03:25.652Z,0.00
2023-11-03T06:06:27.178Z,0.10
2023-11-03T06:09:28.613Z,0.10
2023-11-03T06:12:30.019Z,0.57
2023-11-03T06:15:31.440Z,0.85
2023-11-03T06:18:32.968Z,0.00
2023-11-03T06:21:34.395Z,0.70
2023-11-03T06:24:35.804Z,0.07
2023-11-03T06:27:37.247Z,0.10
2023-11-03T06:30:38.657Z,0.00
2023-11-03T06:33:40.108Z,0.08
2023-11-03T06:36:47.507Z,0.10
2023-11-03T06:39:50.827Z,0.03
2023-11-03T06:42:52.228Z,0.30
2023-11-03T06:45:53.711Z,0.57
2023-11-03T06:48:55.254Z,5.40
2023-11-03T06:51:56.715Z,0.10
2023-11-03T06:54:58.182Z,0.35
2023-11-03T06:57:59.637Z,0.00
2023-11-03T07:01:01.092Z,0.10
2023-11-03T07:04:02.613Z,2.10
2023-11-03T07:07:04.109Z,0.28
2023-11-03T07:10:05.554Z,0.20
2023-11-03T07:13:07.500Z,1.00
2023-11-03T07:16:09.289Z,0.00
2023-11-03T07:19:10.815Z,0.90
2023-11-03T07:22:12.282Z,2.50
2023-11-03T07:25:13.846Z,1.50
2023-11-03T07:28:15.329Z,0.28
2023-11-03T07:31:16.856Z,1.13
2023-11-03T07:34:18.339Z,1.00
2023-11-03T07:37:19.837Z,0.65
2023-11-03T07:40:21.306Z,0.52
2023-11-03T07:43:22.825Z,3.10
2023-11-03T07:46:24.295Z,0.50
2023-11-03T07:49:25.713Z,0.40
2023-11-03T07:52:27.181Z,0.20
2023-11-03T07:55:28.637Z,0.50
2023-11-03T07:58:30.043Z,0.30
2023-11-03T08:01:31.463Z,2.05
2023-11-03T08:04:32.933Z,6.30
2023-11-03T08:07:34.399Z,0.43
2023-11-03T08:10:35.816Z,0.30
2023-11-03T08:13:37.461Z,0.40
2023-11-03T08:16:38.843Z,0.73
2023-11-03T08:19:40.318Z,0.30
2023-11-03T08:22:41.754Z,0.97
2023-11-03T08:25:43.236Z,0.28
2023-11-03T08:28:44.651Z,0.40
2023-11-03T08:31:46.043Z,2.33
2023-11-03T08:34:49.081Z,0.55
2023-11-03T08:37:50.724Z,0.50
2023-11-03T08:40:52.163Z,0.43
2023-11-03T08:43:53.600Z,1.80
2023-11-03T08:46:55.009Z,1.95
2023-11-03T08:49:56.412Z,0.30
2023-11-03T08:52:57.902Z,0.60
2023-11-03T08:55:59.297Z,6.57
2023-11-03T08:59:00.704Z,1.90
2023-11-03T09:02:02.180Z,23.10
2023-11-03T09:05:03.599Z,101.40
2023-11-03T09:08:05.042Z,149.63
2023-11-03T09:11:06.470Z,142.32
2023-11-03T09:14:07.923Z,114.75
2023-11-03T09:17:09.333Z,92.38
2023-11-03T09:20:10.729Z,87.23
2023-11-03T09:23:12.205Z,109.80
2023-11-03T09:26:13.619Z,69.03
2023-11-03T09:29:15.073Z,61.80
2023-11-03T09:32:16.528Z,70.90
2023-11-03T09:35:17.955Z,57.60
2023-11-03T09:38:19.412Z,16.27
2023-11-03T09:41:20.846Z,3.10
2023-11-03T09:44:22.266Z,2.40
2023-11-03T09:47:23.652Z,3.30
2023-11-03T09:50:25.074Z,0.20
2023-11-03T09:53:26.483Z,0.50
2023-11-03T09:56:27.878Z,0.45
2023-11-03T09:59:29.266Z,1.40
2023-11-03T10:02:30.713Z,0.32
2023-11-03T10:05:32.216Z,2.50
2023-11-03T10:08:33.912Z,1.17
2023-11-03T10:11:35.339Z,0.40
2023-11-03T10:14:36.744Z,0.50
2023-11-03T10:17:38.176Z,1.10
2023-11-03T10:20:39.619Z,1.70
2023-11-03T10:23:41.080Z,1.60
2023-11-03T10:26:42.588Z,0.30
2023-11-03T10:29:43.967Z,0.70
2023-11-03T10:32:45.459Z,0.40
2023-11-03T10:35:46.942Z,1.00
2023-11-03T10:38:57.024Z,0.45
2023-11-03T10:42:02.899Z,1.80
2023-11-03T10:45:04.306Z,0.20
2023-11-03T10:48:05.872Z,0.50
2023-11-03T10:51:10.114Z,1.40
2023-11-03T10:54:12.447Z,1.00
2023-11-03T11:00:18.158Z,0.10
2023-11-03T11:03:19.644Z,0.30
2023-11-03T11:06:21.770Z,0.65
2023-11-03T11:09:23.364Z,1.20
2023-11-03T11:12:24.785Z,0.30
2023-11-03T11:15:26.182Z,0.20
2023-11-03T11:18:27.857Z,2.10
2023-11-03T11:21:29.441Z,0.37
2023-11-03T11:24:32.952Z,0.43
2023-11-03T11:27:35.785Z,10.82
2023-11-03T11:30:37.168Z,1.75
2023-11-03T11:33:38.790Z,1.20
2023-11-03T11:36:40.526Z,1.35
2023-11-03T11:39:42.193Z,3.90
2023-11-03T11:42:43.614Z,7.47
2023-11-03T11:45:45.138Z,1.60
2023-11-03T11:48:46.566Z,0.50
2023-11-03T11:51:47.944Z,4.03
2023-11-03T11:54:49.355Z,1.20
2023-11-03T11:57:50.757Z,1.50
2023-11-03T12:00:52.136Z,2.95
2023-11-03T12:03:53.627Z,1.20
2023-11-03T12:06:55.174Z,0.30
2023-11-03T12:09:56.685Z,1.00
2023-11-03T12:12:58.306Z,0.22
2023-11-03T12:15:59.855Z,9.40
2023-11-03T12:19:01.767Z,0.32
2023-11-03T12:22:03.301Z,1.30
2023-11-03T12:25:04.934Z,0.90
2023-11-03T12:28:06.601Z,0.90
2023-11-03T12:31:08.169Z,0.35
2023-11-03T12:34:09.696Z,3.40
2023-11-03T12:37:11.203Z,0.20
2023-11-03T12:40:12.695Z,1.33
2023-11-03T12:43:14.273Z,1.20
2023-11-03T12:46:15.733Z,0.40
2023-11-03T12:49:17.314Z,0.80
2023-11-03T12:52:18.849Z,1.47
2023-11-03T12:55:20.318Z,0.40
2023-11-03T12:58:21.754Z,0.30
2023-11-03T13:01:23.211Z,0.90
2023-11-03T13:04:24.682Z,0.55
2023-11-03T13:07:26.176Z,0.80
2023-11-03T13:10:27.659Z,1.23
2023-11-03T13:13:29.141Z,0.93
2023-11-03T13:16:30.581Z,0.52
2023-11-03T13:19:31.979Z,0.25
2023-11-03T13:22:33.476Z,0.80
2023-11-03T13:25:34.922Z,2.93
2023-11-03T13:28:36.444Z,0.60
2023-11-03T13:31:37.923Z,0.10
2023-11-03T13:34:39.477Z,0.60
2023-11-03T13:37:41.003Z,0.97
2023-11-03T13:40:42.480Z,2.63
2023-11-03T13:43:43.889Z,0.68
2023-11-03T13:46:45.282Z,2.60
2023-11-03T13:49:47.430Z,0.20
2023-11-03T13:52:49.270Z,1.08
2023-11-03T13:55:50.768Z,1.40
2023-11-03T13:58:52.213Z,4.60
2023-11-03T14:01:53.665Z,0.57
2023-11-03T14:04:55.122Z,1.47
2023-11-03T14:07:56.589Z,1.03
2023-11-03T14:10:57.978Z,1.17
2023-11-03T14:13:59.414Z,4.10
2023-11-03T14:17:00.838Z,0.65
2023-11-03T14:20:02.332Z,7.43
2023-11-03T14:23:03.857Z,1.20
2023-11-03T14:26:05.295Z,1.50
2023-11-03T14:29:06.729Z,1.77
2023-11-03T14:32:08.189Z,0.25
2023-11-03T14:35:09.617Z,0.30
2023-11-03T14:38:11.095Z,1.07
2023-11-03T14:41:12.530Z,0.23
2023-11-03T14:44:13.917Z,2.13
2023-11-03T14:47:15.338Z,0.82
2023-11-03T14:50:16.766Z,6.97
2023-11-03T14:53:18.205Z,1.00
2023-11-03T14:56:19.622Z,6.00
2023-11-03T14:59:21.036Z,1.00
2023-11-03T15:02:22.474Z,0.90
2023-11-03T15:05:23.881Z,0.30
2023-11-03T15:08:25.309Z,6.30
2023-11-03T15:11:26.764Z,1.10
2023-11-03T15:14:28.261Z,1.20
2023-11-03T15:17:29.819Z,0.30
2023-11-03T15:20:31.343Z,0.52
2023-11-03T15:23:32.837Z,2.47
2023-11-03T15:26:34.228Z,1.95
2023-11-03T15:29:35.639Z,4.35
2023-11-03T15:32:37.045Z,2.93
2023-11-03T15:35:38.476Z,6.07
2023-11-03T15:38:39.926Z,4.20
2023-11-03T15:41:41.345Z,3.63
2023-11-03T15:44:42.734Z,6.72
2023-11-03T15:47:44.192Z,2.58
2023-11-03T15:50:45.609Z,3.25
2023-11-03T15:53:47.005Z,3.50
2023-11-03T15:56:48.468Z,3.03
2023-11-03T15:59:49.946Z,1.50
2023-11-03T16:02:55.116Z,2.15
2023-11-03T16:05:56.650Z,1.33
2023-11-03T16:08:58.114Z,0.93
2023-11-03T16:11:59.486Z,1.10
2023-11-03T16:15:00.909Z,2.30
2023-11-03T16:18:02.363Z,1.58
2023-11-03T16:21:03.788Z,3.38
2023-11-03T16:24:05.196Z,1.25
2023-11-03T16:27:06.600Z,0.90
2023-11-03T16:30:08.006Z,5.40
2023-11-03T16:33:09.505Z,0.53
2023-11-03T16:36:11.082Z,1.80
2023-11-03T16:39:12.467Z,5.37
2023-11-03T16:42:13.956Z,0.90
2023-11-03T16:45:15.480Z,1.20
2023-11-03T16:48:23.832Z,1.95
2023-11-03T16:51:27.593Z,0.40
2023-11-03T16:54:28.983Z,0.20
2023-11-03T16:57:30.371Z,0.52
2023-11-03T17:00:39.609Z,1.70
2023-11-03T17:03:46.100Z,0.70
2023-11-03T17:06:47.549Z,0.37
2023-11-03T17:09:48.966Z,0.53
2023-11-03T17:12:57.441Z,0.52
2023-11-03T17:16:03.167Z,0.77
2023-11-03T17:19:07.099Z,1.60
2023-11-03T17:22:09.031Z,0.70
2023-11-03T17:25:10.435Z,0.50
2023-11-03T17:28:11.893Z,0.77
2023-11-03T17:31:13.315Z,1.10
2023-11-03T17:34:14.834Z,1.10
2023-11-03T17:37:16.299Z,0.50
2023-11-03T17:40:17.884Z,0.63
2023-11-03T17:43:19.452Z,0.60
2023-11-03T17:46:20.866Z,0.43
2023-11-03T17:49:22.382Z,0.90
2023-11-03T17:52:23.847Z,1.30
2023-11-03T17:55:25.414Z,0.40
2023-11-03T17:58:26.873Z,0.85
2023-11-03T18:01:28.391Z,1.23
2023-11-03T18:04:29.980Z,0.20
2023-11-03T18:07:31.524Z,0.70
2023-11-03T18:10:32.976Z,0.60
2023-11-03T18:13:34.422Z,0.32
2023-11-03T18:16:35.856Z,1.27
2023-11-03T18:19:37.307Z,0.68
2023-11-03T18:22:38.788Z,0.80
2023-11-03T18:25:40.246Z,0.20
2023-11-03T18:28:41.757Z,1.27
2023-11-03T18:31:43.242Z,1.30
2023-11-03T18:34:44.796Z,3.70
2023-11-03T18:37:46.353Z,3.15
2023-11-03T18:40:47.983Z,1.40
2023-11-03T18:43:49.485Z,1.10
2023-11-03T18:46:50.938Z,2.00
2023-11-03T18:51:22.959Z,3.70
2023-11-03T18:57:44.478Z,2.77
2023-11-03T19:07:27.201Z,1.30
2023-11-03T19:09:09.683Z,0.80
2023-11-03T19:12:11.113Z,2.60
2023-11-03T19:15:12.601Z,0.60
2023-11-03T19:18:14.136Z,0.80
2023-11-03T19:21:15.619Z,0.70
2023-11-03T19:24:17.038Z,0.68
2023-11-03T19:27:18.534Z,0.40
2023-11-03T19:30:19.961Z,0.73
2023-11-03T19:33:21.869Z,1.00
2023-11-03T19:36:23.497Z,0.40
2023-11-03T19:39:25.056Z,0.35
2023-11-03T19:42:26.478Z,0.35
2023-11-03T19:45:27.953Z,1.25
2023-11-03T19:48:29.606Z,0.90
2023-11-03T19:51:31.123Z,0.93
2023-11-03T19:54:35.306Z,0.28
2023-11-03T19:57:37.155Z,0.15
2023-11-03T20:00:38.634Z,1.00
2023-11-03T20:03:40.250Z,1.60
2023-11-03T20:06:41.927Z,0.20
2023-11-03T20:09:43.470Z,0.80
2023-11-03T20:12:44.933Z,4.15
2023-11-03T20:15:46.437Z,0.47
2023-11-03T20:18:47.990Z,0.33
2023-11-03T20:21:49.488Z,1.07
2023-11-03T20:24:50.871Z,0.53
2023-11-03T20:27:52.353Z,0.70
2023-11-03T20:30:53.786Z,1.15
2023-11-03T20:33:55.496Z,1.10
2023-11-03T20:36:57.000Z,0.60
2023-11-03T20:39:58.408Z,0.80
2023-11-03T20:42:59.780Z,0.30
2023-11-03T20:46:01.200Z,0.80
2023-11-03T20:49:02.732Z,0.70
2023-11-03T20:52:04.212Z,1.20
2023-11-03T20:55:05.644Z,1.33
2023-11-03T20:58:07.120Z,0.32
2023-11-03T21:01:08.583Z,0.35
2023-11-03T21:04:10.070Z,0.28
2023-11-03T21:07:11.529Z,0.60
2023-11-03T21:10:12.965Z,1.10
2023-11-03T21:13:14.386Z,0.47
2023-11-03T21:16:15.803Z,0.57
2023-11-03T21:19:17.382Z,0.75
2023-11-03T21:22:18.815Z,0.77
2023-11-03T21:25:20.218Z,1.10
2023-11-03T21:28:21.650Z,0.57
2023-11-03T21:31:23.079Z,1.30
2023-11-03T21:34:24.581Z,0.33
2023-11-03T21:37:26.010Z,0.40
2023-11-03T21:40:27.458Z,0.40
2023-11-03T21:43:28.980Z,0.28
2023-11-03T21:46:30.360Z,0.57
2023-11-03T21:49:31.816Z,0.30
2023-11-03T21:52:33.273Z,0.30
2023-11-03T21:55:34.701Z,0.80
2023-11-03T21:58:36.155Z,0.30
2023-11-03T22:01:37.583Z,0.60
2023-11-03T22:04:39.068Z,0.80
2023-11-03T22:07:40.579Z,0.40
2023-11-03T22:10:42.021Z,0.50
2023-11-03T22:13:43.430Z,0.38
2023-11-03T22:16:44.918Z,0.10
2023-11-03T22:19:46.695Z,0.20
2023-11-03T22:22:48.199Z,0.80
2023-11-03T22:25:49.581Z,0.40
2023-11-03T22:28:50.984Z,3.23
2023-11-03T22:31:52.398Z,0.32
2023-11-03T22:34:53.769Z,0.32
2023-11-03T22:37:55.232Z,0.40
2023-11-03T22:40:56.674Z,0.13
2023-11-03T22:43:58.090Z,0.60
2023-11-03T22:46:59.646Z,0.83
2023-11-03T22:50:01.203Z,2.75
2023-11-03T22:53:02.720Z,0.20
2023-11-03T22:56:04.197Z,0.73
2023-11-03T22:59:05.675Z,0.52
2023-11-03T23:02:07.146Z,0.30
2023-11-03T23:05:08.583Z,0.20
2023-11-03T23:08:10.035Z,0.55
2023-11-03T23:11:11.475Z,0.40
2023-11-03T23:14:12.873Z,0.50
2023-11-03T23:17:14.353Z,0.97
2023-11-03T23:20:15.797Z,0.17
2023-11-03T23:23:17.238Z,1.23
2023-11-03T23:26:18.664Z,0.00
2023-11-03T23:29:20.099Z,1.00
2023-11-03T23:32:21.534Z,0.20
2023-11-03T23:35:22.971Z,0.20
2023-11-03T23:38:24.372Z,0.40
2023-11-03T23:41:25.809Z,0.60
2023-11-03T23:44:27.227Z,0.20
2023-11-03T23:47:28.693Z,0.25
2023-11-03T23:50:30.131Z,0.30
2023-11-03T23:53:31.530Z,0.27
2023-11-03T23:56:32.935Z,1.10
2023-11-03T23:59:34.383Z,0.47
